sensor_id;sensor_type;location;lat;lon;timestamp;pressure;altitude;pressure_sealevel;temperature;humidity
29045;BME280;16133;49.486;12.176;2022-09-13T00:01:00;97047.09;;;8.75;100.00
29045;BME280;16133;49.486;12.176;2022-09-13T00:03:25;97041.00;;;8.75;100.00
29045;BME280;16133;49.486;12.176;2022-09-13T00:05:51;97032.44;;;8.73;100.00
29045;BME280;16133;49.486;12.176;2022-09-13T00:08:17;97035.25;;;8.71;100.00
29045;BME280;16133;49.486;12.176;2022-09-13T00:10:44;97028.97;;;8.72;100.00
29045;BME280;16133;49.486;12.176;2022-09-13T00:13:11;97027.50;;;8.70;100.00
29045;BME280;16133;49.486;12.176;2022-09-13T00:15:42;97027.03;;;8.66;100.00
29045;BME280;16133;49.486;12.176;2022-09-13T00:18:08;97014.13;;;8.63;100.00
29045;BME280;16133;49.486;12.176;2022-09-13T00:20:33;97016.50;;;8.58;100.00
29045;BME280;16133;49.486;12.176;2022-09-13T00:22:58;97000.03;;;8.48;100.00
29045;BME280;16133;49.486;12.176;2022-09-13T00:25:24;97020.16;;;8.57;100.00
29045;BME280;16133;49.486;12.176;2022-09-13T00:27:49;97014.19;;;8.55;100.00
29045;BME280;16133;49.486;12.176;2022-09-13T00:30:14;97020.84;;;8.51;100.00
29045;BME280;16133;49.486;12.176;2022-09-13T00:32:40;97027.13;;;8.50;100.00
29045;BME280;16133;49.486;12.176;2022-09-13T00:35:06;97026.47;;;8.48;100.00
29045;BME280;16133;49.486;12.176;2022-09-13T00:37:31;97027.81;;;8.44;100.00
29045;BME280;16133;49.486;12.176;2022-09-13T00:40:00;97018.28;;;8.43;100.00
29045;BME280;16133;49.486;12.176;2022-09-13T00:42:28;97014.13;;;8.40;100.00
29045;BME280;16133;49.486;12.176;2022-09-13T00:45:14;97011.31;;;8.42;100.00
29045;BME280;16133;49.486;12.176;2022-09-13T00:47:48;97011.69;;;8.39;100.00
29045;BME280;16133;49.486;12.176;2022-09-13T00:50:40;97023.25;;;8.38;100.00
29045;BME280;16133;49.486;12.176;2022-09-13T00:53:14;97009.19;;;8.37;100.00
29045;BME280;16133;49.486;12.176;2022-09-13T00:56:02;97005.09;;;8.35;100.00
29045;BME280;16133;49.486;12.176;2022-09-13T00:58:47;97001.78;;;8.33;100.00
29045;BME280;16133;49.486;12.176;2022-09-13T01:01:15;96992.41;;;8.30;100.00
29045;BME280;16133;49.486;12.176;2022-09-13T01:03:44;97011.06;;;8.29;100.00
29045;BME280;16133;49.486;12.176;2022-09-13T01:06:17;97000.66;;;8.27;100.00
29045;BME280;16133;49.486;12.176;2022-09-13T01:08:47;96992.25;;;8.24;100.00
29045;BME280;16133;49.486;12.176;2022-09-13T01:14:02;96984.03;;;8.18;100.00
29045;BME280;16133;49.486;12.176;2022-09-13T01:16:28;96986.00;;;8.16;100.00
29045;BME280;16133;49.486;12.176;2022-09-13T01:18:53;96986.34;;;8.13;100.00
29045;BME280;16133;49.486;12.176;2022-09-13T01:37:57;96979.81;;;8.01;100.00
29045;BME280;16133;49.486;12.176;2022-09-13T01:43:26;96974.38;;;8.03;100.00
29045;BME280;16133;49.486;12.176;2022-09-13T01:46:27;96965.00;;;8.00;100.00
29045;BME280;16133;49.486;12.176;2022-09-13T01:51:36;96969.81;;;7.97;100.00
29045;BME280;16133;49.486;12.176;2022-09-13T01:54:20;96969.97;;;7.95;100.00
29045;BME280;16133;49.486;12.176;2022-09-13T01:57:01;96972.75;;;7.94;100.00
29045;BME280;16133;49.486;12.176;2022-09-13T02:04:47;96972.28;;;7.90;100.00
29045;BME280;16133;49.486;12.176;2022-09-13T02:07:28;96976.13;;;7.88;100.00
29045;BME280;16133;49.486;12.176;2022-09-13T02:10:02;96973.63;;;7.86;100.00
29045;BME280;16133;49.486;12.176;2022-09-13T02:12:30;96973.00;;;7.84;100.00
29045;BME280;16133;49.486;12.176;2022-09-13T02:15:13;96974.34;;;7.80;100.00
29045;BME280;16133;49.486;12.176;2022-09-13T02:17:48;96983.91;;;7.81;100.00
29045;BME280;16133;49.486;12.176;2022-09-13T02:20:21;96978.78;;;7.80;100.00
29045;BME280;16133;49.486;12.176;2022-09-13T02:22:53;96976.31;;;7.78;100.00
29045;BME280;16133;49.486;12.176;2022-09-13T02:25:21;96974.84;;;7.76;100.00
29045;BME280;16133;49.486;12.176;2022-09-13T02:27:51;96976.84;;;7.74;100.00
29045;BME280;16133;49.486;12.176;2022-09-13T02:30:17;96984.94;;;7.72;100.00
29045;BME280;16133;49.486;12.176;2022-09-13T02:32:54;96974.38;;;7.72;100.00
29045;BME280;16133;49.486;12.176;2022-09-13T02:35:30;96976.53;;;7.68;100.00
29045;BME280;16133;49.486;12.176;2022-09-13T02:38:02;96978.69;;;7.65;100.00
29045;BME280;16133;49.486;12.176;2022-09-13T02:40:33;96989.25;;;7.65;100.00
29045;BME280;16133;49.486;12.176;2022-09-13T02:43:43;96986.97;;;7.62;100.00
29045;BME280;16133;49.486;12.176;2022-09-13T02:49:17;96988.47;;;7.56;100.00
29045;BME280;16133;49.486;12.176;2022-09-13T02:57:16;96978.41;;;7.52;100.00
29045;BME280;16133;49.486;12.176;2022-09-13T02:59:46;96975.78;;;7.52;100.00
29045;BME280;16133;49.486;12.176;2022-09-13T03:02:15;96968.88;;;7.51;100.00
29045;BME280;16133;49.486;12.176;2022-09-13T03:04:42;96967.03;;;7.51;100.00
29045;BME280;16133;49.486;12.176;2022-09-13T03:07:12;96961.75;;;7.51;100.00
29045;BME280;16133;49.486;12.176;2022-09-13T03:09:59;96949.38;;;7.52;100.00
29045;BME280;16133;49.486;12.176;2022-09-13T03:15:48;96940.47;;;7.53;100.00
29045;BME280;16133;49.486;12.176;2022-09-13T03:23:59;96925.19;;;7.71;100.00
29045;BME280;16133;49.486;12.176;2022-09-13T03:34:39;96900.44;;;7.95;100.00
29045;BME280;16133;49.486;12.176;2022-09-13T03:37:24;96881.53;;;8.06;100.00
29045;BME280;16133;49.486;12.176;2022-09-13T03:39:56;96874.69;;;8.20;100.00
29045;BME280;16133;49.486;12.176;2022-09-13T03:44:56;96858.34;;;8.39;100.00
29045;BME280;16133;49.486;12.176;2022-09-13T03:47:24;96836.13;;;8.48;100.00
29045;BME280;16133;49.486;12.176;2022-09-13T03:49:51;96830.13;;;8.54;100.00
29045;BME280;16133;49.486;12.176;2022-09-13T03:52:17;96822.28;;;8.60;100.00
29045;BME280;16133;49.486;12.176;2022-09-13T03:54:43;96818.72;;;8.68;100.00
29045;BME280;16133;49.486;12.176;2022-09-13T03:57:14;96815.53;;;8.73;100.00
29045;BME280;16133;49.486;12.176;2022-09-13T03:59:44;96814.34;;;8.75;100.00
29045;BME280;16133;49.486;12.176;2022-09-13T04:02:11;96812.97;;;8.79;100.00
29045;BME280;16133;49.486;12.176;2022-09-13T04:04:40;96812.59;;;8.82;100.00
29045;BME280;16133;49.486;12.176;2022-09-13T04:07:06;96819.38;;;8.85;100.00
29045;BME280;16133;49.486;12.176;2022-09-13T04:09:32;96810.41;;;8.86;100.00
29045;BME280;16133;49.486;12.176;2022-09-13T04:11:57;96826.94;;;8.88;100.00
29045;BME280;16133;49.486;12.176;2022-09-13T04:14:23;96820.00;;;8.87;100.00
29045;BME280;16133;49.486;12.176;2022-09-13T04:16:52;96826.47;;;8.84;100.00
29045;BME280;16133;49.486;12.176;2022-09-13T04:19:18;96826.03;;;8.81;100.00
29045;BME280;16133;49.486;12.176;2022-09-13T04:21:46;96825.22;;;8.80;100.00
29045;BME280;16133;49.486;12.176;2022-09-13T04:24:11;96820.91;;;8.79;100.00
29045;BME280;16133;49.486;12.176;2022-09-13T04:26:38;96819.09;;;8.80;100.00
29045;BME280;16133;49.486;12.176;2022-09-13T04:29:03;96832.47;;;8.78;100.00
29045;BME280;16133;49.486;12.176;2022-09-13T04:31:29;96837.16;;;8.76;100.00
29045;BME280;16133;49.486;12.176;2022-09-13T04:33:54;96841.00;;;8.74;100.00
29045;BME280;16133;49.486;12.176;2022-09-13T04:36:19;96849.91;;;8.73;100.00
29045;BME280;16133;49.486;12.176;2022-09-13T04:38:45;96857.19;;;8.71;100.00
29045;BME280;16133;49.486;12.176;2022-09-13T04:41:11;96867.16;;;8.69;100.00
29045;BME280;16133;49.486;12.176;2022-09-13T04:43:37;96873.63;;;8.66;100.00
29045;BME280;16133;49.486;12.176;2022-09-13T04:46:03;96886.19;;;8.64;100.00
29045;BME280;16133;49.486;12.176;2022-09-13T04:48:28;96892.47;;;8.63;100.00
29045;BME280;16133;49.486;12.176;2022-09-13T04:51:00;96898.78;;;8.62;100.00
29045;BME280;16133;49.486;12.176;2022-09-13T04:53:25;96913.38;;;8.58;100.00
29045;BME280;16133;49.486;12.176;2022-09-13T04:55:51;96918.00;;;8.56;100.00
29045;BME280;16133;49.486;12.176;2022-09-13T04:58:17;96925.47;;;8.52;100.00
29045;BME280;16133;49.486;12.176;2022-09-13T05:00:42;96912.63;;;8.49;100.00
29045;BME280;16133;49.486;12.176;2022-09-13T05:03:08;96905.69;;;8.48;100.00
29045;BME280;16133;49.486;12.176;2022-09-13T05:05:33;96900.84;;;8.52;100.00
29045;BME280;16133;49.486;12.176;2022-09-13T05:07:58;96901.16;;;8.57;100.00
29045;BME280;16133;49.486;12.176;2022-09-13T05:10:24;96892.84;;;8.60;100.00
29045;BME280;16133;49.486;12.176;2022-09-13T05:12:49;96896.78;;;8.64;100.00
29045;BME280;16133;49.486;12.176;2022-09-13T05:15:14;96876.91;;;8.68;100.00
29045;BME280;16133;49.486;12.176;2022-09-13T05:17:40;96882.81;;;8.70;100.00
29045;BME280;16133;49.486;12.176;2022-09-13T05:20:06;96878.13;;;8.80;100.00
29045;BME280;16133;49.486;12.176;2022-09-13T05:22:31;96871.09;;;8.87;100.00
29045;BME280;16133;49.486;12.176;2022-09-13T05:24:57;96872.38;;;8.91;100.00
29045;BME280;16133;49.486;12.176;2022-09-13T05:27:22;96871.28;;;9.00;100.00
29045;BME280;16133;49.486;12.176;2022-09-13T05:29:47;96877.28;;;9.09;100.00
29045;BME280;16133;49.486;12.176;2022-09-13T05:32:13;96864.41;;;9.21;100.00
29045;BME280;16133;49.486;12.176;2022-09-13T05:34:38;96859.66;;;9.31;100.00
29045;BME280;16133;49.486;12.176;2022-09-13T05:37:04;96854.50;;;9.44;100.00
29045;BME280;16133;49.486;12.176;2022-09-13T05:39:29;96851.03;;;9.58;100.00
29045;BME280;16133;49.486;12.176;2022-09-13T05:41:54;96857.28;;;9.72;100.00
29045;BME280;16133;49.486;12.176;2022-09-13T05:44:20;96845.81;;;9.86;100.00
29045;BME280;16133;49.486;12.176;2022-09-13T05:46:46;96849.41;;;9.99;100.00
29045;BME280;16133;49.486;12.176;2022-09-13T05:49:12;96841.38;;;10.14;100.00
29045;BME280;16133;49.486;12.176;2022-09-13T05:51:38;96826.66;;;10.26;100.00
29045;BME280;16133;49.486;12.176;2022-09-13T05:54:03;96816.94;;;10.40;100.00
29045;BME280;16133;49.486;12.176;2022-09-13T05:56:29;96809.09;;;10.53;100.00
29045;BME280;16133;49.486;12.176;2022-09-13T05:58:56;96807.16;;;10.68;100.00
29045;BME280;16133;49.486;12.176;2022-09-13T06:01:24;96807.22;;;10.81;100.00
29045;BME280;16133;49.486;12.176;2022-09-13T06:03:51;96790.72;;;10.92;100.00
29045;BME280;16133;49.486;12.176;2022-09-13T06:06:17;96788.34;;;11.04;100.00
29045;BME280;16133;49.486;12.176;2022-09-13T06:08:43;96781.66;;;11.15;100.00
29045;BME280;16133;49.486;12.176;2022-09-13T06:11:10;96770.47;;;11.26;100.00
29045;BME280;16133;49.486;12.176;2022-09-13T06:13:37;96778.88;;;11.36;100.00
29045;BME280;16133;49.486;12.176;2022-09-13T06:16:05;96762.56;;;11.45;100.00
29045;BME280;16133;49.486;12.176;2022-09-13T06:18:32;96771.56;;;11.58;100.00
29045;BME280;16133;49.486;12.176;2022-09-13T06:21:04;96766.72;;;11.74;100.00
29045;BME280;16133;49.486;12.176;2022-09-13T06:23:30;96766.34;;;11.90;100.00
29045;BME280;16133;49.486;12.176;2022-09-13T06:26:10;96760.22;;;12.10;100.00
29045;BME280;16133;49.486;12.176;2022-09-13T06:28:36;96759.38;;;12.29;100.00
29045;BME280;16133;49.486;12.176;2022-09-13T06:31:12;96759.78;;;12.45;100.00
29045;BME280;16133;49.486;12.176;2022-09-13T06:33:40;96743.97;;;12.57;100.00
29045;BME280;16133;49.486;12.176;2022-09-13T06:38:39;96760.31;;;12.80;100.00
29045;BME280;16133;49.486;12.176;2022-09-13T06:41:10;96764.16;;;12.98;100.00
29045;BME280;16133;49.486;12.176;2022-09-13T06:43:36;96775.81;;;13.10;100.00
29045;BME280;16133;49.486;12.176;2022-09-13T06:46:08;96785.59;;;13.22;100.00
29045;BME280;16133;49.486;12.176;2022-09-13T06:48:36;96792.28;;;13.38;100.00
29045;BME280;16133;49.486;12.176;2022-09-13T06:51:04;96804.13;;;13.55;100.00
29045;BME280;16133;49.486;12.176;2022-09-13T06:53:30;96810.41;;;13.67;100.00
29045;BME280;16133;49.486;12.176;2022-09-13T06:56:02;96828.41;;;13.78;100.00
29045;BME280;16133;49.486;12.176;2022-09-13T06:58:29;96835.91;;;13.95;100.00
29045;BME280;16133;49.486;12.176;2022-09-13T07:01:22;96858.34;;;14.12;100.00
29045;BME280;16133;49.486;12.176;2022-09-13T07:03:50;96875.25;;;14.30;100.00
29045;BME280;16133;49.486;12.176;2022-09-13T07:06:21;96889.97;;;14.46;100.00
29045;BME280;16133;49.486;12.176;2022-09-13T07:08:48;96906.28;;;14.63;100.00
29045;BME280;16133;49.486;12.176;2022-09-13T07:11:15;96931.03;;;14.76;100.00
29045;BME280;16133;49.486;12.176;2022-09-13T07:13:55;96950.81;;;14.94;100.00
29045;BME280;16133;49.486;12.176;2022-09-13T07:16:23;96981.66;;;15.14;100.00
29045;BME280;16133;49.486;12.176;2022-09-13T07:18:53;96996.31;;;15.37;100.00
29045;BME280;16133;49.486;12.176;2022-09-13T07:21:19;97018.34;;;15.57;100.00
29045;BME280;16133;49.486;12.176;2022-09-13T07:23:45;97037.53;;;15.72;100.00
29045;BME280;16133;49.486;12.176;2022-09-13T07:26:10;97038.59;;;15.89;100.00
29045;BME280;16133;49.486;12.176;2022-09-13T07:28:38;97046.47;;;16.02;100.00
29045;BME280;16133;49.486;12.176;2022-09-13T07:33:41;97060.47;;;16.22;100.00
29045;BME280;16133;49.486;12.176;2022-09-13T07:36:07;97056.22;;;16.33;100.00
29045;BME280;16133;49.486;12.176;2022-09-13T07:38:34;97062.09;;;16.42;100.00
29045;BME280;16133;49.486;12.176;2022-09-13T07:41:01;97065.59;;;16.42;100.00
29045;BME280;16133;49.486;12.176;2022-09-13T07:43:27;97057.47;;;16.49;100.00
29045;BME280;16133;49.486;12.176;2022-09-13T07:46:01;97055.16;;;16.52;100.00
29045;BME280;16133;49.486;12.176;2022-09-13T07:48:28;97052.84;;;16.56;100.00
29045;BME280;16133;49.486;12.176;2022-09-13T07:51:03;97059.19;;;16.61;100.00
29045;BME280;16133;49.486;12.176;2022-09-13T07:53:29;97055.94;;;16.59;100.00
29045;BME280;16133;49.486;12.176;2022-09-13T07:58:27;97064.25;;;16.51;100.00
29045;BME280;16133;49.486;12.176;2022-09-13T08:00:52;97063.06;;;16.47;100.00
29045;BME280;16133;49.486;12.176;2022-09-13T08:03:18;97056.56;;;16.37;100.00
29045;BME280;16133;49.486;12.176;2022-09-13T08:05:43;97061.44;;;16.28;100.00
29045;BME280;16133;49.486;12.176;2022-09-13T08:08:08;97069.47;;;16.28;100.00
29045;BME280;16133;49.486;12.176;2022-09-13T08:10:34;97069.03;;;16.31;100.00
29045;BME280;16133;49.486;12.176;2022-09-13T08:12:59;97081.13;;;16.34;100.00
29045;BME280;16133;49.486;12.176;2022-09-13T08:15:25;97075.56;;;16.35;100.00
29045;BME280;16133;49.486;12.176;2022-09-13T08:17:51;97085.25;;;16.36;100.00
29045;BME280;16133;49.486;12.176;2022-09-13T08:20:18;97089.84;;;16.47;100.00
29045;BME280;16133;49.486;12.176;2022-09-13T08:22:44;97094.59;;;16.63;100.00
29045;BME280;16133;49.486;12.176;2022-09-13T08:25:09;97087.13;;;16.84;100.00
29045;BME280;16133;49.486;12.176;2022-09-13T08:27:35;97093.03;;;17.04;100.00
29045;BME280;16133;49.486;12.176;2022-09-13T08:30:00;97086.34;;;17.25;100.00
29045;BME280;16133;49.486;12.176;2022-09-13T08:32:26;97095.00;;;17.38;100.00
29045;BME280;16133;49.486;12.176;2022-09-13T08:34:52;97090.03;;;17.53;100.00
29045;BME280;16133;49.486;12.176;2022-09-13T08:37:17;97105.94;;;17.66;100.00
29045;BME280;16133;49.486;12.176;2022-09-13T08:39:43;97099.88;;;17.83;100.00
29045;BME280;16133;49.486;12.176;2022-09-13T08:44:54;97096.63;;;18.15;98.79
29045;BME280;16133;49.486;12.176;2022-09-13T08:47:31;97091.81;;;18.17;97.79
29045;BME280;16133;49.486;12.176;2022-09-13T09:01:06;97077.22;;;17.90;98.03
29045;BME280;16133;49.486;12.176;2022-09-13T09:06:10;97078.75;;;17.75;99.12
29045;BME280;16133;49.486;12.176;2022-09-13T09:08:49;97065.09;;;17.64;99.32
29045;BME280;16133;49.486;12.176;2022-09-13T09:11:27;97071.47;;;17.52;99.75
29045;BME280;16133;49.486;12.176;2022-09-13T09:14:11;97066.81;;;17.47;100.00
29045;BME280;16133;49.486;12.176;2022-09-13T09:16:54;97065.38;;;17.33;100.00
29045;BME280;16133;49.486;12.176;2022-09-13T09:19:38;97074.50;;;17.44;100.00
29045;BME280;16133;49.486;12.176;2022-09-13T09:22:12;97069.03;;;17.50;100.00
29045;BME280;16133;49.486;12.176;2022-09-13T09:24:39;97063.13;;;17.72;100.00
29045;BME280;16133;49.486;12.176;2022-09-13T09:27:14;97064.41;;;18.04;100.00
29045;BME280;16133;49.486;12.176;2022-09-13T09:29:40;97065.53;;;18.31;99.06
29045;BME280;16133;49.486;12.176;2022-09-13T09:37:30;97058.69;;;18.63;94.29
29045;BME280;16133;49.486;12.176;2022-09-13T09:40:00;97049.94;;;18.96;94.23
29045;BME280;16133;49.486;12.176;2022-09-13T09:42:31;97044.69;;;19.51;91.15
29045;BME280;16133;49.486;12.176;2022-09-13T09:45:02;97048.69;;;20.21;87.73
29045;BME280;16133;49.486;12.176;2022-09-13T09:47:35;97025.38;;;20.75;83.46
29045;BME280;16133;49.486;12.176;2022-09-13T09:50:13;97034.63;;;21.32;79.26
29045;BME280;16133;49.486;12.176;2022-09-13T09:55:26;97036.78;;;22.04;76.05
29045;BME280;16133;49.486;12.176;2022-09-13T09:57:58;97029.66;;;22.30;72.71
29045;BME280;16133;49.486;12.176;2022-09-13T10:00:30;97035.69;;;22.52;71.88
29045;BME280;16133;49.486;12.176;2022-09-13T10:03:00;97029.88;;;22.80;70.22
29045;BME280;16133;49.486;12.176;2022-09-13T10:05:27;97024.25;;;23.07;68.26
29045;BME280;16133;49.486;12.176;2022-09-13T10:12:52;97025.91;;;23.39;64.25
29045;BME280;16133;49.486;12.176;2022-09-13T10:15:28;97019.66;;;23.38;63.87
29045;BME280;16133;49.486;12.176;2022-09-13T10:18:15;97013.97;;;23.34;64.83
29045;BME280;16133;49.486;12.176;2022-09-13T10:20:42;97017.50;;;23.35;64.01
29045;BME280;16133;49.486;12.176;2022-09-13T10:23:23;97030.78;;;23.42;64.39
29045;BME280;16133;49.486;12.176;2022-09-13T10:28:34;97029.97;;;23.21;62.18
29045;BME280;16133;49.486;12.176;2022-09-13T10:36:12;97013.13;;;22.83;65.08
29045;BME280;16133;49.486;12.176;2022-09-13T10:38:40;97015.84;;;22.94;64.66
29045;BME280;16133;49.486;12.176;2022-09-13T10:41:20;97010.75;;;23.22;64.07
29045;BME280;16133;49.486;12.176;2022-09-13T10:43:46;97018.34;;;23.51;63.48
29045;BME280;16133;49.486;12.176;2022-09-13T10:46:20;97007.50;;;23.81;62.67
29045;BME280;16133;49.486;12.176;2022-09-13T10:48:48;97010.69;;;24.13;61.12
29045;BME280;16133;49.486;12.176;2022-09-13T10:51:27;97008.47;;;24.31;60.36
29045;BME280;16133;49.486;12.176;2022-09-13T10:56:39;97005.28;;;24.77;58.73
29045;BME280;16133;49.486;12.176;2022-09-13T10:59:25;96992.53;;;24.83;57.85
29045;BME280;16133;49.486;12.176;2022-09-13T11:07:07;96964.16;;;25.04;57.53
29045;BME280;16133;49.486;12.176;2022-09-13T11:09:50;96961.69;;;25.08;57.45
29045;BME280;16133;49.486;12.176;2022-09-13T11:15:36;96956.25;;;25.13;57.60
29045;BME280;16133;49.486;12.176;2022-09-13T11:18:19;96955.75;;;25.06;57.41
29045;BME280;16133;49.486;12.176;2022-09-13T11:44:53;96954.66;;;25.41;56.85
29045;BME280;16133;49.486;12.176;2022-09-13T11:47:36;96964.75;;;25.35;55.91
29045;BME280;16133;49.486;12.176;2022-09-13T11:55:53;96963.47;;;24.89;57.30
29045;BME280;16133;49.486;12.176;2022-09-13T11:58:25;96958.03;;;24.89;57.81
29045;BME280;16133;49.486;12.176;2022-09-13T12:00:57;96956.34;;;24.98;58.17
29045;BME280;16133;49.486;12.176;2022-09-13T12:03:37;96958.97;;;25.08;57.71
29045;BME280;16133;49.486;12.176;2022-09-13T12:06:33;96955.44;;;25.07;57.77
29045;BME280;16133;49.486;12.176;2022-09-13T12:09:04;96945.16;;;25.04;57.33
29045;BME280;16133;49.486;12.176;2022-09-13T12:11:38;96941.63;;;25.04;57.90
29045;BME280;16133;49.486;12.176;2022-09-13T12:14:27;96943.03;;;24.96;57.64
29045;BME280;16133;49.486;12.176;2022-09-13T12:17:03;96941.47;;;24.90;57.52
29045;BME280;16133;49.486;12.176;2022-09-13T12:19:45;96944.50;;;24.79;57.71
29045;BME280;16133;49.486;12.176;2022-09-13T12:22:14;96931.84;;;24.64;58.08
29045;BME280;16133;49.486;12.176;2022-09-13T12:24:53;96925.16;;;24.46;58.91
29045;BME280;16133;49.486;12.176;2022-09-13T12:29:54;96930.09;;;24.34;59.65
29045;BME280;16133;49.486;12.176;2022-09-13T12:32:21;96924.22;;;24.22;58.72
29045;BME280;16133;49.486;12.176;2022-09-13T12:35:04;96934.78;;;24.13;59.17
29045;BME280;16133;49.486;12.176;2022-09-13T12:43:03;96914.06;;;24.43;59.89
29045;BME280;16133;49.486;12.176;2022-09-13T13:00:09;96910.91;;;25.13;59.01
29045;BME280;16133;49.486;12.176;2022-09-13T13:02:42;96912.75;;;25.18;58.79
29045;BME280;16133;49.486;12.176;2022-09-13T13:05:30;96884.03;;;25.07;57.89
29045;BME280;16133;49.486;12.176;2022-09-13T13:08:23;96915.47;;;25.47;57.92
29045;BME280;16133;49.486;12.176;2022-09-13T13:11:28;96919.69;;;25.63;56.97
29045;BME280;16133;49.486;12.176;2022-09-13T13:14:02;96919.00;;;25.76;56.91
29045;BME280;16133;49.486;12.176;2022-09-13T13:16:39;96916.50;;;25.80;56.15
29045;BME280;16133;49.486;12.176;2022-09-13T13:19:31;96914.44;;;25.95;56.35
29045;BME280;16133;49.486;12.176;2022-09-13T13:25:34;96906.34;;;26.14;55.05
29045;BME280;16133;49.486;12.176;2022-09-13T13:31:08;96897.16;;;26.10;55.51
29045;BME280;16133;49.486;12.176;2022-09-13T13:33:46;96900.28;;;25.98;56.28
29045;BME280;16133;49.486;12.176;2022-09-13T13:36:29;96898.06;;;25.77;56.96
29045;BME280;16133;49.486;12.176;2022-09-13T13:38:58;96891.16;;;25.60;57.05
29045;BME280;16133;49.486;12.176;2022-09-13T13:46:44;96885.53;;;24.94;60.54
29045;BME280;16133;49.486;12.176;2022-09-13T13:54:58;96895.38;;;24.36;63.13
29045;BME280;16133;49.486;12.176;2022-09-13T13:57:34;96890.56;;;24.23;63.44
29045;BME280;16133;49.486;12.176;2022-09-13T14:11:01;96898.59;;;23.69;67.12
29045;BME280;16133;49.486;12.176;2022-09-13T14:13:43;96892.97;;;23.40;67.46
29045;BME280;16133;49.486;12.176;2022-09-13T14:21:37;96873.50;;;22.93;71.60
29045;BME280;16133;49.486;12.176;2022-09-13T14:24:22;96887.84;;;22.93;71.12
29045;BME280;16133;49.486;12.176;2022-09-13T14:26:57;96891.09;;;22.95;71.99
29045;BME280;16133;49.486;12.176;2022-09-13T14:29:23;96885.94;;;23.09;71.98
29045;BME280;16133;49.486;12.176;2022-09-13T14:31:54;96887.28;;;23.31;71.29
29045;BME280;16133;49.486;12.176;2022-09-13T14:36:56;96889.94;;;23.67;70.15
29045;BME280;16133;49.486;12.176;2022-09-13T14:39:23;96879.63;;;23.74;69.24
29045;BME280;16133;49.486;12.176;2022-09-13T14:42:14;96875.28;;;23.83;68.31
29045;BME280;16133;49.486;12.176;2022-09-13T14:44:43;96879.06;;;23.77;67.96
29045;BME280;16133;49.486;12.176;2022-09-13T14:47:23;96871.28;;;23.60;68.91
29045;BME280;16133;49.486;12.176;2022-09-13T14:50:03;96875.63;;;23.41;69.48
29045;BME280;16133;49.486;12.176;2022-09-13T14:52:37;96859.13;;;23.27;70.11
29045;BME280;16133;49.486;12.176;2022-09-13T14:55:13;96860.50;;;23.25;70.42
29045;BME280;16133;49.486;12.176;2022-09-13T14:57:47;96850.22;;;23.17;71.94
29045;BME280;16133;49.486;12.176;2022-09-13T15:02:47;96852.13;;;22.86;72.95
29045;BME280;16133;49.486;12.176;2022-09-13T15:05:15;96859.72;;;22.74;73.63
29045;BME280;16133;49.486;12.176;2022-09-13T15:07:41;96852.63;;;22.58;74.99
29045;BME280;16133;49.486;12.176;2022-09-13T15:10:20;96847.75;;;22.45;75.42
29045;BME280;16133;49.486;12.176;2022-09-13T15:13:01;96851.75;;;22.27;75.98
29045;BME280;16133;49.486;12.176;2022-09-13T15:28:53;96822.66;;;21.15;85.11
29045;BME280;16133;49.486;12.176;2022-09-13T15:31:22;96821.78;;;21.04;86.45
29045;BME280;16133;49.486;12.176;2022-09-13T15:34:20;96819.25;;;20.92;87.74
29045;BME280;16133;49.486;12.176;2022-09-13T15:37:10;96823.22;;;20.80;87.77
29045;BME280;16133;49.486;12.176;2022-09-13T15:40:00;96825.03;;;20.74;88.88
29045;BME280;16133;49.486;12.176;2022-09-13T15:42:26;96812.84;;;20.67;90.48
29045;BME280;16133;49.486;12.176;2022-09-13T15:44:51;96827.44;;;20.71;91.14
29045;BME280;16133;49.486;12.176;2022-09-13T15:47:17;96828.00;;;20.73;91.77
29045;BME280;16133;49.486;12.176;2022-09-13T15:49:48;96824.75;;;20.71;91.03
29045;BME280;16133;49.486;12.176;2022-09-13T15:52:15;96826.09;;;20.68;91.10
29045;BME280;16133;49.486;12.176;2022-09-13T15:54:42;96815.53;;;20.67;90.89
29045;BME280;16133;49.486;12.176;2022-09-13T15:57:21;96818.25;;;20.67;91.23
29045;BME280;16133;49.486;12.176;2022-09-13T15:59:47;96821.75;;;20.67;91.02
29045;BME280;16133;49.486;12.176;2022-09-13T16:02:22;96819.34;;;20.71;91.54
29045;BME280;16133;49.486;12.176;2022-09-13T16:04:48;96817.53;;;20.76;91.18
29045;BME280;16133;49.486;12.176;2022-09-13T16:07:14;96822.16;;;20.81;90.95
29045;BME280;16133;49.486;12.176;2022-09-13T16:09:39;96813.78;;;20.82;91.19
29045;BME280;16133;49.486;12.176;2022-09-13T16:12:05;96814.53;;;20.78;91.42
29045;BME280;16133;49.486;12.176;2022-09-13T16:14:30;96812.91;;;20.72;91.56
29045;BME280;16133;49.486;12.176;2022-09-13T16:16:58;96795.03;;;20.61;91.62
29045;BME280;16133;49.486;12.176;2022-09-13T16:19:24;96803.34;;;20.54;91.89
29045;BME280;16133;49.486;12.176;2022-09-13T16:21:50;96812.13;;;20.44;93.12
29045;BME280;16133;49.486;12.176;2022-09-13T16:24:15;96803.09;;;20.29;93.38
29045;BME280;16133;49.486;12.176;2022-09-13T16:26:41;96811.50;;;20.11;94.65
29045;BME280;16133;49.486;12.176;2022-09-13T16:29:09;96809.19;;;19.92;96.10
29045;BME280;16133;49.486;12.176;2022-09-13T16:31:35;96814.34;;;19.72;97.62
29045;BME280;16133;49.486;12.176;2022-09-13T16:34:00;96815.72;;;19.53;99.24
29045;BME280;16133;49.486;12.176;2022-09-13T16:36:26;96804.41;;;19.34;100.00
29045;BME280;16133;49.486;12.176;2022-09-13T16:38:53;96809.00;;;19.17;100.00
29045;BME280;16133;49.486;12.176;2022-09-13T16:41:19;96810.13;;;18.99;100.00
29045;BME280;16133;49.486;12.176;2022-09-13T16:43:44;96811.78;;;18.84;100.00
29045;BME280;16133;49.486;12.176;2022-09-13T16:46:11;96806.97;;;18.69;100.00